createdAt,value
2019-03-21T00:01:59.897Z,18.60
2019-03-21T00:04:26.068Z,18.77
2019-03-21T00:06:52.268Z,17.63
2019-03-21T00:09:18.475Z,18.00
2019-03-21T00:12:00.461Z,17.97
2019-03-21T00:14:33.184Z,18.77
2019-03-21T00:17:00.269Z,18.97
2019-03-21T00:19:27.597Z,18.17
2019-03-21T00:21:53.893Z,19.13
2019-03-21T00:24:19.968Z,20.27
2019-03-21T00:26:46.275Z,19.93
2019-03-21T00:29:12.480Z,19.93
2019-03-21T00:31:38.662Z,19.97
2019-03-21T00:34:04.967Z,19.60
2019-03-21T00:36:31.270Z,20.40
2019-03-21T00:38:57.558Z,19.50
2019-03-21T00:41:23.774Z,19.17
2019-03-21T00:43:49.842Z,19.67
2019-03-21T00:46:15.955Z,18.10
2019-03-21T00:48:42.161Z,18.60
2019-03-21T00:51:08.352Z,18.77
2019-03-21T00:53:34.446Z,18.93
2019-03-21T00:56:00.567Z,17.43
2019-03-21T00:58:26.644Z,19.57
2019-03-21T01:00:56.348Z,18.40
2019-03-21T01:03:22.500Z,19.43
2019-03-21T01:05:48.781Z,18.33
2019-03-21T01:08:14.853Z,19.53
2019-03-21T01:10:40.980Z,19.43
2019-03-21T01:13:07.072Z,18.93
2019-03-21T01:15:33.653Z,19.63
2019-03-21T01:17:59.862Z,20.10
2019-03-21T01:20:25.934Z,19.97
2019-03-21T01:22:52.137Z,20.10
2019-03-21T01:25:34.883Z,20.07
2019-03-21T01:28:00.946Z,20.00
2019-03-21T01:30:27.132Z,20.83
2019-03-21T01:32:53.312Z,20.37
2019-03-21T01:35:19.408Z,20.20
2019-03-21T01:37:45.499Z,20.43
2019-03-21T01:40:21.502Z,19.97
2019-03-21T01:42:47.600Z,20.10
2019-03-21T01:45:19.963Z,19.57
2019-03-21T01:47:46.148Z,21.00
2019-03-21T01:50:15.706Z,19.40
2019-03-21T01:52:41.763Z,20.27
2019-03-21T01:55:11.374Z,20.40
2019-03-21T01:57:37.776Z,20.97
2019-03-21T02:00:24.281Z,20.50
2019-03-21T02:02:52.762Z,20.47
2019-03-21T02:05:18.853Z,20.57
2019-03-21T02:07:44.936Z,22.10
2019-03-21T02:10:15.384Z,20.43
2019-03-21T02:12:41.579Z,20.80
2019-03-21T02:15:12.845Z,21.70
2019-03-21T02:17:39.110Z,20.90
2019-03-21T02:20:09.034Z,21.50
2019-03-21T02:22:35.242Z,20.40
2019-03-21T02:25:01.441Z,21.73
2019-03-21T02:27:27.512Z,21.27
2019-03-21T02:29:53.737Z,22.00
2019-03-21T02:32:19.831Z,21.80
2019-03-21T02:34:45.940Z,21.63
2019-03-21T02:37:13.068Z,21.23
2019-03-21T02:39:39.184Z,21.43
2019-03-21T02:42:05.302Z,21.57
2019-03-21T02:44:31.364Z,22.20
2019-03-21T02:46:57.532Z,23.60
2019-03-21T02:49:23.653Z,22.07
2019-03-21T02:51:49.855Z,21.70
2019-03-21T02:54:16.029Z,22.13
2019-03-21T02:56:42.215Z,22.27
2019-03-21T02:59:08.273Z,21.93
2019-03-21T03:01:34.378Z,21.87
2019-03-21T03:04:00.672Z,22.97
2019-03-21T03:06:26.843Z,22.83
2019-03-21T03:08:53.017Z,22.70
2019-03-21T03:11:20.941Z,21.83
2019-03-21T03:13:49.029Z,21.47
2019-03-21T03:16:15.318Z,23.00
2019-03-21T03:18:41.459Z,24.47
2019-03-21T03:21:07.633Z,23.07
2019-03-21T03:23:33.712Z,23.13
2019-03-21T03:25:59.896Z,23.47
2019-03-21T03:28:32.500Z,23.33
2019-03-21T03:30:58.670Z,23.10
2019-03-21T03:33:25.169Z,23.67
2019-03-21T03:35:51.441Z,23.30
2019-03-21T03:38:17.511Z,24.80
2019-03-21T03:41:01.492Z,23.43
2019-03-21T03:43:27.818Z,22.17
2019-03-21T03:45:53.866Z,24.73
2019-03-21T03:48:20.381Z,24.90
2019-03-21T03:50:46.453Z,23.20
2019-03-21T03:53:13.653Z,24.73
2019-03-21T03:55:39.757Z,23.50
2019-03-21T03:58:18.258Z,24.03
2019-03-21T04:00:44.597Z,24.53
2019-03-21T04:03:10.785Z,24.20
2019-03-21T04:05:36.966Z,24.60
2019-03-21T04:08:04.189Z,24.23
2019-03-21T04:10:38.914Z,25.60
2019-03-21T04:13:05.225Z,25.27
2019-03-21T04:15:31.669Z,25.43
2019-03-21T04:17:57.971Z,26.70
2019-03-21T04:20:48.780Z,25.37
2019-03-21T04:23:18.577Z,24.97
2019-03-21T04:25:55.582Z,24.50
2019-03-21T04:28:21.764Z,24.83
2019-03-21T04:30:48.044Z,25.63
2019-03-21T04:33:14.316Z,25.10
2019-03-21T04:35:40.699Z,24.90
2019-03-21T04:38:06.899Z,25.53
2019-03-21T04:40:32.992Z,25.87
2019-03-21T04:42:59.164Z,25.50
2019-03-21T04:45:25.654Z,25.47
2019-03-21T04:47:51.874Z,25.30
2019-03-21T04:50:21.046Z,25.43
2019-03-21T04:52:47.137Z,25.23
2019-03-21T04:55:14.741Z,25.40
2019-03-21T04:57:40.812Z,26.13
2019-03-21T05:00:15.916Z,25.57
2019-03-21T05:02:42.657Z,26.10
2019-03-21T05:05:10.366Z,26.40
2019-03-21T05:07:36.585Z,25.97
2019-03-21T05:10:06.504Z,25.60
2019-03-21T05:12:32.640Z,26.30
2019-03-21T05:14:58.739Z,27.07
2019-03-21T05:17:24.947Z,26.20
2019-03-21T05:19:51.086Z,27.23
2019-03-21T05:22:17.266Z,26.90
2019-03-21T05:24:43.338Z,26.70
2019-03-21T05:27:09.537Z,27.73
2019-03-21T05:29:35.619Z,26.60
2019-03-21T05:32:03.807Z,27.07
2019-03-21T05:34:29.783Z,27.10
2019-03-21T05:36:55.863Z,26.60
2019-03-21T05:39:22.022Z,27.20
2019-03-21T05:41:48.085Z,26.10
2019-03-21T05:44:26.878Z,26.13
2019-03-21T05:46:53.252Z,27.27
2019-03-21T05:49:19.447Z,28.10
2019-03-21T05:51:45.654Z,28.37
2019-03-21T05:54:11.835Z,27.93
2019-03-21T05:56:38.017Z,29.20
2019-03-21T05:59:04.132Z,32.40
2019-03-21T06:01:30.304Z,29.33
2019-03-21T06:03:56.405Z,27.47
2019-03-21T06:06:31.897Z,35.33
2019-03-21T06:08:57.969Z,29.97
2019-03-21T06:11:24.222Z,28.70
2019-03-21T06:13:50.421Z,27.83
2019-03-21T06:16:16.545Z,27.33
2019-03-21T06:18:52.245Z,27.50
2019-03-21T06:21:22.187Z,29.00
2019-03-21T06:24:01.024Z,28.57
2019-03-21T06:26:46.285Z,27.50
2019-03-21T06:29:12.550Z,28.20
2019-03-21T06:31:38.758Z,28.23
2019-03-21T06:34:04.971Z,28.40
2019-03-21T06:36:31.101Z,28.77
2019-03-21T06:38:57.289Z,28.70
2019-03-21T06:41:23.379Z,29.80
2019-03-21T06:43:49.510Z,29.03
2019-03-21T06:46:15.587Z,28.40
2019-03-21T06:48:41.679Z,28.17
2019-03-21T06:51:07.876Z,29.47
2019-03-21T06:53:34.072Z,29.57
2019-03-21T06:56:00.277Z,28.67
2019-03-21T06:58:26.483Z,27.97
2019-03-21T07:00:52.682Z,27.97
2019-03-21T07:03:18.872Z,27.73
2019-03-21T07:05:44.938Z,28.27
2019-03-21T07:08:11.021Z,27.73
2019-03-21T07:10:37.280Z,28.60
2019-03-21T07:13:03.695Z,26.87
2019-03-21T07:15:29.957Z,28.60
2019-03-21T07:17:56.068Z,28.37
2019-03-21T07:20:22.235Z,29.77
2019-03-21T07:22:48.542Z,28.90
2019-03-21T07:25:14.843Z,28.40
2019-03-21T07:27:40.963Z,27.10
2019-03-21T07:30:09.956Z,26.97
2019-03-21T07:32:36.159Z,26.87
2019-03-21T07:35:04.556Z,27.43
2019-03-21T07:37:30.635Z,26.80
2019-03-21T07:39:56.745Z,25.93
2019-03-21T07:42:22.935Z,26.17
2019-03-21T07:44:49.034Z,26.90
2019-03-21T07:47:15.233Z,25.47
2019-03-21T07:49:41.416Z,29.73
2019-03-21T07:52:07.520Z,27.97
2019-03-21T07:54:33.692Z,28.20
2019-03-21T07:57:00.100Z,26.93
2019-03-21T07:59:26.278Z,26.63
2019-03-21T08:01:52.485Z,27.10
2019-03-21T08:04:18.585Z,27.47
2019-03-21T08:06:44.906Z,26.47
2019-03-21T08:09:11.033Z,27.90
2019-03-21T08:11:37.110Z,26.70
2019-03-21T08:14:03.501Z,29.27
2019-03-21T08:16:29.644Z,25.67
2019-03-21T08:18:55.764Z,27.00
2019-03-21T08:21:21.856Z,27.17
2019-03-21T08:23:47.943Z,27.23
2019-03-21T08:26:14.131Z,28.17
2019-03-21T08:28:40.215Z,25.47
2019-03-21T08:31:10.144Z,26.50
2019-03-21T08:33:36.355Z,27.40
2019-03-21T08:36:02.655Z,26.90
2019-03-21T08:38:28.877Z,28.20
2019-03-21T08:40:55.068Z,26.50
2019-03-21T08:43:21.154Z,29.27
2019-03-21T08:45:47.252Z,26.57
2019-03-21T08:48:13.431Z,28.33
2019-03-21T08:50:39.643Z,28.23
2019-03-21T08:53:05.715Z,27.23
2019-03-21T08:55:31.816Z,27.10
2019-03-21T08:57:58.006Z,26.77
2019-03-21T09:00:33.758Z,25.83
2019-03-21T09:02:53.403Z,26.27
2019-03-21T09:05:19.595Z,27.10
2019-03-21T09:07:45.717Z,26.60
2019-03-21T09:10:12.017Z,27.57
2019-03-21T09:12:38.246Z,26.87
2019-03-21T09:15:08.296Z,27.37
2019-03-21T09:17:34.446Z,25.97
2019-03-21T09:20:00.755Z,27.50
2019-03-21T09:22:27.575Z,27.43
2019-03-21T09:24:53.881Z,26.90
2019-03-21T09:27:19.972Z,28.27
2019-03-21T09:29:53.422Z,26.27
2019-03-21T09:32:14.285Z,27.57
2019-03-21T09:34:41.478Z,27.33
2019-03-21T09:37:07.585Z,28.40
2019-03-21T09:39:33.700Z,29.27
2019-03-21T09:41:59.879Z,28.03
2019-03-21T09:44:27.714Z,28.70
2019-03-21T09:46:55.827Z,28.77
2019-03-21T09:49:21.929Z,28.33
2019-03-21T09:51:48.153Z,29.20
2019-03-21T09:54:14.242Z,29.37
2019-03-21T09:56:40.350Z,29.43
2019-03-21T09:59:06.523Z,29.90
2019-03-21T10:01:32.836Z,29.33
2019-03-21T10:03:58.931Z,28.30
2019-03-21T10:06:25.132Z,29.00
2019-03-21T10:08:51.245Z,30.37
2019-03-21T10:11:17.340Z,29.87
2019-03-21T10:13:43.552Z,29.73
2019-03-21T10:16:09.796Z,30.60
2019-03-21T10:18:35.997Z,30.67
2019-03-21T10:21:02.179Z,30.23
2019-03-21T10:23:28.316Z,29.83
2019-03-21T10:25:54.617Z,27.90
2019-03-21T10:28:20.947Z,30.67
2019-03-21T10:30:47.186Z,29.13
2019-03-21T10:33:13.406Z,29.33
2019-03-21T10:35:39.806Z,27.30
2019-03-21T10:38:06.425Z,27.90
2019-03-21T10:40:32.682Z,28.40
2019-03-21T10:42:59.081Z,26.83
2019-03-21T10:45:25.338Z,27.60
2019-03-21T10:47:51.557Z,26.57
2019-03-21T10:50:29.040Z,27.43
2019-03-21T10:52:55.740Z,27.27
2019-03-21T10:55:21.840Z,26.17
2019-03-21T10:57:47.933Z,28.03
2019-03-21T11:00:14.157Z,27.67
2019-03-21T11:02:40.368Z,26.30
2019-03-21T11:05:06.566Z,26.63
2019-03-21T11:07:32.661Z,24.93
2019-03-21T11:09:58.856Z,23.63
2019-03-21T11:12:25.067Z,23.60
2019-03-21T11:14:51.138Z,24.20
2019-03-21T11:17:17.458Z,24.23
2019-03-21T11:19:43.773Z,24.57
2019-03-21T11:22:09.863Z,26.47
2019-03-21T11:24:36.067Z,25.47
2019-03-21T11:27:02.275Z,25.40
2019-03-21T11:29:28.394Z,25.27
2019-03-21T11:31:54.601Z,25.70
2019-03-21T11:34:21.786Z,25.87
2019-03-21T11:36:47.942Z,24.40
2019-03-21T11:39:14.143Z,26.80
2019-03-21T11:41:40.349Z,27.63
2019-03-21T11:44:06.635Z,25.63
2019-03-21T11:46:32.698Z,26.50
2019-03-21T11:48:58.833Z,25.43
2019-03-21T11:51:24.933Z,25.30
2019-03-21T11:53:50.997Z,26.03
2019-03-21T11:56:17.701Z,25.87
2019-03-21T11:58:43.808Z,24.03
2019-03-21T12:01:10.031Z,23.97
2019-03-21T12:03:36.368Z,24.00
2019-03-21T12:06:02.693Z,21.87
2019-03-21T12:08:28.800Z,21.47
2019-03-21T12:10:54.919Z,21.60
2019-03-21T12:13:21.065Z,23.43
2019-03-21T12:15:47.191Z,23.23
2019-03-21T12:18:13.415Z,22.50
2019-03-21T12:20:39.558Z,24.13
2019-03-21T12:23:05.755Z,25.03
2019-03-21T12:25:31.884Z,24.77
2019-03-21T12:27:58.176Z,24.97
2019-03-21T12:30:28.090Z,27.73
2019-03-21T12:32:54.217Z,26.13
2019-03-21T12:35:20.308Z,26.77
2019-03-21T12:37:46.385Z,26.93
2019-03-21T12:40:12.593Z,27.40
2019-03-21T12:42:38.686Z,27.07
2019-03-21T12:45:08.703Z,26.67
2019-03-21T12:47:34.882Z,24.30
2019-03-21T12:50:05.309Z,22.33
2019-03-21T12:52:40.998Z,21.00
2019-03-21T12:54:59.585Z,22.13
2019-03-21T12:57:25.656Z,21.40
2019-03-21T12:59:51.755Z,20.07
2019-03-21T13:02:17.929Z,20.32
2019-03-21T13:04:44.260Z,17.80
2019-03-21T13:07:10.367Z,18.92
2019-03-21T13:09:36.593Z,19.30
2019-03-21T13:12:02.915Z,18.05
2019-03-21T13:14:29.472Z,18.77
2019-03-21T13:16:55.718Z,18.95
2019-03-21T13:19:21.907Z,17.48
2019-03-21T13:21:48.230Z,19.05
2019-03-21T13:24:17.223Z,19.10
2019-03-21T13:26:42.375Z,19.62
2019-03-21T13:29:08.591Z,18.67
2019-03-21T13:31:34.715Z,19.23
2019-03-21T13:34:00.841Z,20.27
2019-03-21T13:36:27.023Z,21.30
2019-03-21T13:38:54.217Z,19.48
2019-03-21T13:41:20.307Z,18.00
2019-03-21T13:43:46.413Z,20.57
2019-03-21T13:46:12.580Z,19.70
2019-03-21T13:48:39.740Z,18.63
2019-03-21T13:51:05.846Z,22.10
2019-03-21T13:53:33.022Z,21.43
2019-03-21T13:55:59.351Z,22.47
2019-03-21T13:58:25.491Z,22.57
2019-03-21T14:00:51.562Z,22.53
2019-03-21T14:03:25.008Z,20.97
2019-03-21T14:05:45.755Z,22.23
2019-03-21T14:08:11.898Z,22.65
2019-03-21T14:10:38.086Z,20.70
2019-03-21T14:13:04.184Z,21.87
2019-03-21T14:15:30.332Z,23.50
2019-03-21T14:17:56.634Z,20.47
2019-03-21T14:20:22.948Z,22.23
2019-03-21T14:22:49.063Z,21.50
2019-03-21T14:25:15.364Z,22.33
2019-03-21T14:27:41.689Z,23.03
2019-03-21T14:30:13.981Z,22.47
2019-03-21T14:32:40.191Z,22.77
2019-03-21T14:35:07.330Z,22.57
2019-03-21T14:37:33.446Z,22.53
2019-03-21T14:39:59.540Z,22.73
2019-03-21T14:42:25.711Z,22.67
2019-03-21T14:44:51.970Z,22.90
2019-03-21T14:47:18.173Z,23.00
2019-03-21T14:49:44.384Z,23.20
2019-03-21T14:52:10.579Z,22.87
2019-03-21T14:54:36.782Z,24.07
2019-03-21T14:57:02.988Z,22.67
2019-03-21T14:59:29.195Z,23.23
2019-03-21T15:01:55.341Z,20.80
2019-03-21T15:04:21.465Z,19.83
2019-03-21T15:06:47.548Z,20.97
2019-03-21T15:09:13.646Z,22.53
2019-03-21T15:11:39.860Z,21.80
2019-03-21T15:14:05.990Z,21.73
2019-03-21T15:16:32.101Z,23.13
2019-03-21T15:18:59.209Z,22.10
2019-03-21T15:21:25.421Z,23.20
2019-03-21T15:23:59.309Z,22.60
2019-03-21T15:26:19.704Z,22.33
2019-03-21T15:28:45.800Z,21.77
2019-03-21T15:31:11.973Z,24.53
2019-03-21T15:33:38.143Z,23.23
2019-03-21T15:36:04.458Z,22.77
2019-03-21T15:38:30.636Z,22.47
2019-03-21T15:40:56.758Z,23.00
2019-03-21T15:43:22.987Z,22.37
2019-03-21T15:45:49.176Z,22.33
2019-03-21T15:48:15.471Z,22.50
2019-03-21T15:50:42.777Z,21.00
2019-03-21T15:53:08.899Z,21.33
2019-03-21T15:55:35.202Z,21.00
2019-03-21T15:58:01.507Z,22.63
2019-03-21T16:00:36.359Z,21.63
2019-03-21T16:03:04.871Z,22.50
2019-03-21T16:05:31.192Z,22.27
2019-03-21T16:07:57.288Z,21.93
2019-03-21T16:10:23.358Z,22.40
2019-03-21T16:12:49.589Z,23.40
2019-03-21T16:15:15.814Z,23.60
2019-03-21T16:17:42.976Z,22.70
2019-03-21T16:20:09.317Z,22.53
2019-03-21T16:22:35.750Z,23.67
2019-03-21T16:25:04.394Z,23.30
2019-03-21T16:27:31.568Z,24.00
2019-03-21T16:29:57.762Z,23.17
2019-03-21T16:32:23.986Z,23.30
2019-03-21T16:34:50.079Z,23.20
2019-03-21T16:37:16.325Z,23.20
2019-03-21T16:39:42.419Z,23.23
2019-03-21T16:42:08.548Z,22.87
2019-03-21T16:44:34.739Z,23.83
2019-03-21T16:47:02.017Z,23.90
2019-03-21T16:49:28.158Z,23.43
2019-03-21T16:51:54.385Z,23.83
2019-03-21T16:54:20.723Z,24.30
2019-03-21T16:56:46.839Z,24.30
2019-03-21T16:59:13.067Z,24.10
2019-03-21T17:01:39.311Z,24.50
2019-03-21T17:04:05.502Z,24.53
2019-03-21T17:06:31.739Z,23.93
2019-03-21T17:08:57.805Z,23.87
2019-03-21T17:11:23.944Z,25.00
2019-03-21T17:13:50.044Z,24.80
2019-03-21T17:16:16.293Z,24.53
2019-03-21T17:18:42.547Z,23.53
2019-03-21T17:21:09.741Z,24.40
2019-03-21T17:23:37.129Z,24.73
2019-03-21T17:26:03.426Z,25.67
2019-03-21T17:28:29.656Z,29.97
2019-03-21T17:30:55.893Z,26.37
2019-03-21T17:33:22.028Z,27.03
2019-03-21T17:35:48.280Z,24.67
2019-03-21T17:38:14.606Z,34.33
2019-03-21T17:40:40.714Z,29.83
2019-03-21T17:43:06.921Z,24.97
2019-03-21T17:45:33.411Z,26.93
2019-03-21T17:47:59.487Z,24.93
2019-03-21T17:50:25.750Z,25.27
2019-03-21T17:52:51.958Z,24.97
2019-03-21T17:55:19.364Z,25.60
2019-03-21T17:57:45.649Z,26.13
2019-03-21T18:00:21.227Z,25.33
2019-03-21T18:02:47.648Z,25.33
2019-03-21T18:05:13.971Z,24.77
2019-03-21T18:07:40.087Z,28.90
2019-03-21T18:10:16.091Z,28.27
2019-03-21T18:12:42.303Z,27.47
2019-03-21T18:15:08.614Z,26.93
2019-03-21T18:17:34.760Z,26.33
2019-03-21T18:20:01.005Z,25.13
2019-03-21T18:22:27.322Z,28.17
2019-03-21T18:24:54.293Z,29.93
2019-03-21T18:27:20.582Z,30.23
2019-03-21T18:29:46.809Z,31.23
2019-03-21T18:32:12.949Z,30.07
2019-03-21T18:34:39.059Z,31.83
2019-03-21T18:37:05.193Z,31.70
2019-03-21T18:39:31.329Z,27.17
2019-03-21T18:41:57.559Z,29.83
2019-03-21T18:44:23.777Z,29.60
2019-03-21T18:46:49.905Z,29.90
2019-03-21T18:49:16.034Z,28.33
2019-03-21T18:51:42.329Z,29.77
2019-03-21T18:54:08.507Z,30.67
2019-03-21T18:56:34.620Z,29.97
2019-03-21T18:59:00.885Z,30.90
2019-03-21T19:01:27.123Z,31.30
2019-03-21T19:03:53.232Z,31.23
2019-03-21T19:06:19.378Z,32.87
2019-03-21T19:08:45.633Z,29.37
2019-03-21T19:11:11.961Z,30.90
2019-03-21T19:13:38.264Z,30.57
2019-03-21T19:16:05.373Z,30.20
2019-03-21T19:18:31.582Z,30.57
2019-03-21T19:20:57.814Z,35.40
2019-03-21T19:23:24.017Z,33.37
2019-03-21T19:25:50.239Z,34.67
2019-03-21T19:28:16.631Z,37.43
2019-03-21T19:30:42.764Z,38.70
2019-03-21T19:33:09.134Z,41.90
2019-03-21T19:35:35.442Z,43.83
2019-03-21T19:38:01.692Z,38.00
2019-03-21T19:40:28.000Z,37.97
2019-03-21T19:42:54.239Z,38.20
2019-03-21T19:45:20.596Z,42.00
2019-03-21T19:47:46.960Z,37.70
2019-03-21T19:50:17.752Z,38.77
2019-03-21T19:52:44.366Z,39.03
2019-03-21T19:55:10.932Z,40.83
2019-03-21T19:57:37.241Z,39.47
2019-03-21T20:00:15.751Z,39.40
2019-03-21T20:02:42.250Z,42.27
2019-03-21T20:05:09.670Z,42.50
2019-03-21T20:07:35.990Z,40.70
2019-03-21T20:10:03.615Z,38.90
2019-03-21T20:12:29.861Z,40.93
2019-03-21T20:14:56.329Z,40.53
2019-03-21T20:17:22.555Z,46.70
2019-03-21T20:19:48.794Z,43.53
2019-03-21T20:22:15.174Z,43.80
2019-03-21T20:24:41.306Z,43.00
2019-03-21T20:27:09.879Z,45.37
2019-03-21T20:29:36.256Z,48.53
2019-03-21T20:32:02.535Z,40.87
2019-03-21T20:34:28.758Z,41.43
2019-03-21T20:36:56.130Z,41.23
2019-03-21T20:39:22.450Z,43.43
2019-03-21T20:41:48.656Z,43.37
2019-03-21T20:44:15.623Z,47.47
2019-03-21T20:46:42.050Z,41.17
2019-03-21T20:49:09.460Z,46.30
2019-03-21T20:51:36.792Z,42.07
2019-03-21T20:54:03.113Z,40.20
2019-03-21T20:56:29.425Z,38.87
2019-03-21T20:58:55.775Z,42.33
2019-03-21T21:01:22.000Z,34.47
2019-03-21T21:03:48.337Z,40.73
2019-03-21T21:06:14.688Z,38.67
2019-03-21T21:08:40.988Z,41.27
2019-03-21T21:11:07.357Z,42.63
2019-03-21T21:13:33.469Z,42.77
2019-03-21T21:15:59.674Z,35.23
2019-03-21T21:18:26.022Z,34.03
2019-03-21T21:20:52.206Z,37.27
2019-03-21T21:23:18.515Z,38.43
2019-03-21T21:25:44.629Z,36.07
2019-03-21T21:28:10.837Z,44.90
2019-03-21T21:30:37.062Z,43.70
2019-03-21T21:33:03.260Z,46.00
2019-03-21T21:35:29.442Z,41.20
2019-03-21T21:37:55.500Z,46.73
2019-03-21T21:40:21.620Z,45.33
2019-03-21T21:42:47.843Z,47.57
2019-03-21T21:45:15.827Z,52.87
2019-03-21T21:47:42.137Z,52.83
2019-03-21T21:50:13.862Z,56.47
2019-03-21T21:52:42.304Z,50.77
2019-03-21T21:55:08.462Z,52.33
2019-03-21T21:57:34.808Z,50.90
2019-03-21T22:00:01.092Z,46.87
2019-03-21T22:02:27.498Z,47.10
2019-03-21T22:04:53.680Z,46.40
2019-03-21T22:07:19.878Z,47.83
2019-03-21T22:09:45.975Z,46.33
2019-03-21T22:12:12.068Z,43.27
2019-03-21T22:14:38.173Z,43.53
2019-03-21T22:17:04.369Z,43.77
2019-03-21T22:19:30.492Z,46.63
2019-03-21T22:21:56.741Z,40.57
2019-03-21T22:24:22.835Z,42.87
2019-03-21T22:26:48.951Z,48.00
2019-03-21T22:29:15.313Z,49.67
2019-03-21T22:31:41.519Z,48.63
2019-03-21T22:34:07.710Z,54.90
2019-03-21T22:36:33.817Z,51.50
2019-03-21T22:39:00.012Z,53.63
2019-03-21T22:41:26.098Z,50.00
2019-03-21T22:43:52.226Z,43.47
2019-03-21T22:46:18.305Z,40.57
2019-03-21T22:48:44.413Z,46.50
2019-03-21T22:51:10.509Z,39.77
2019-03-21T22:53:36.613Z,44.70
2019-03-21T22:56:02.904Z,45.47
2019-03-21T22:58:31.946Z,46.13
2019-03-21T23:00:57.292Z,43.87
2019-03-21T23:03:23.667Z,40.80
2019-03-21T23:05:49.866Z,46.20
2019-03-21T23:08:16.022Z,48.17
2019-03-21T23:10:44.937Z,47.87
2019-03-21T23:13:10.222Z,48.43
2019-03-21T23:15:36.305Z,50.63
2019-03-21T23:18:02.694Z,57.90
2019-03-21T23:20:28.797Z,50.97
2019-03-21T23:22:55.136Z,50.83
2019-03-21T23:25:21.531Z,50.13
2019-03-21T23:27:47.923Z,42.53
2019-03-21T23:30:18.123Z,41.20
2019-03-21T23:32:44.530Z,42.40
2019-03-21T23:35:11.048Z,47.70
2019-03-21T23:37:37.435Z,59.90
2019-03-21T23:40:11.879Z,61.37
2019-03-21T23:42:37.982Z,49.40
2019-03-21T23:45:06.059Z,53.53
2019-03-21T23:47:32.263Z,53.57
2019-03-21T23:49:58.467Z,54.43
2019-03-21T23:52:24.701Z,53.17
2019-03-21T23:54:50.806Z,52.07
2019-03-21T23:57:16.911Z,50.73
2019-03-21T23:59:42.998Z,52.60
